Time;durP1;ratioP1;P1;durP2;ratioP2;P2;SDS_P1;SDS_P2;PMS_P1;PMS_P2;Temp;Humidity;BMP_temperature;BMP_pressure;BME280_temperature;BME280_humidity;BME280_pressure;Samples;Min_cycle;Max_cycle;Signal;HPM_P1;HPM_P2
2022/07/12 00:01:08;;;;;;;2.83;0.80;;;;;;;;;;4941898;29;20401;-87
2022/07/12 00:03:34;;;;;;;2.50;0.80;;;;;;;;;;4940569;29;20067;-87
2022/07/12 00:06:01;;;;;;;2.72;0.80;;;;;;;;;;4940088;29;20095;-86
2022/07/12 00:08:27;;;;;;;0.93;0.80;;;;;;;;;;4941197;29;20075;-85
2022/07/12 00:10:52;;;;;;;1.40;0.80;;;;;;;;;;4940757;29;20035;-86
2022/07/12 00:13:18;;;;;;;2.17;0.90;;;;;;;;;;4939954;29;20040;-85
2022/07/12 00:15:44;;;;;;;1.42;0.90;;;;;;;;;;4940914;29;20036;-85
2022/07/12 00:18:10;;;;;;;1.05;0.70;;;;;;;;;;4940743;29;20039;-86
2022/07/12 00:20:36;;;;;;;2.33;1.00;;;;;;;;;;4941419;29;20066;-86
2022/07/12 00:23:01;;;;;;;2.10;1.00;;;;;;;;;;4940844;29;20552;-86
2022/07/12 00:25:27;;;;;;;4.55;0.90;;;;;;;;;;4940459;29;20024;-86
2022/07/12 00:27:53;;;;;;;2.40;0.95;;;;;;;;;;4940491;29;20040;-86
2022/07/12 00:30:19;;;;;;;2.33;0.88;;;;;;;;;;4941028;29;20055;-87
2022/07/12 00:32:45;;;;;;;0.93;0.75;;;;;;;;;;4940925;29;20032;-87
2022/07/12 00:35:11;;;;;;;3.35;0.90;;;;;;;;;;4940038;29;20382;-85
2022/07/12 00:37:36;;;;;;;1.88;0.95;;;;;;;;;;4939631;29;20044;-86
2022/07/12 00:40:08;;;;;;;1.40;0.82;;;;;;;;;;4940374;29;20047;-87
2022/07/12 00:42:35;;;;;;;1.45;0.90;;;;;;;;;;4955714;29;20055;-86
2022/07/12 00:45:01;;;;;;;3.28;0.95;;;;;;;;;;4940466;29;20039;-87
2022/07/12 00:47:44;;;;;;;1.27;0.80;;;;;;;;;;4940669;29;20047;-86
2022/07/12 00:50:15;;;;;;;1.13;0.85;;;;;;;;;;4939297;29;20654;-86
2022/07/12 00:52:42;;;;;;;3.13;0.90;;;;;;;;;;4940462;29;20039;-86
2022/07/12 00:55:09;;;;;;;2.42;0.93;;;;;;;;;;4938916;29;20053;-86
2022/07/12 00:57:36;;;;;;;1.50;0.90;;;;;;;;;;4939325;29;20034;-87
2022/07/12 01:00:04;;;;;;;2.22;0.80;;;;;;;;;;4939510;29;20499;-87
2022/07/12 01:02:31;;;;;;;0.77;0.77;;;;;;;;;;4939417;29;20027;-86
2022/07/12 01:04:57;;;;;;;2.22;0.90;;;;;;;;;;4939723;29;20046;-85
2022/07/12 01:07:25;;;;;;;4.13;0.95;;;;;;;;;;4938795;29;20111;-86
2022/07/12 01:09:52;;;;;;;1.42;0.80;;;;;;;;;;4939794;29;20055;-85
2022/07/12 01:12:18;;;;;;;1.50;0.88;;;;;;;;;;4939682;29;20044;-88
2022/07/12 01:14:44;;;;;;;1.23;0.93;;;;;;;;;;4938824;29;20039;-87
2022/07/12 01:17:10;;;;;;;2.20;0.90;;;;;;;;;;4940046;29;20043;-87
2022/07/12 01:19:37;;;;;;;1.25;0.98;;;;;;;;;;4939704;29;20527;-87
2022/07/12 01:22:08;;;;;;;1.20;1.00;;;;;;;;;;4940498;29;20050;-87
2022/07/12 01:24:34;;;;;;;1.50;1.10;;;;;;;;;;4943310;29;20418;-85
2022/07/12 01:27:01;;;;;;;1.50;1.10;;;;;;;;;;4943810;29;20493;-85
2022/07/12 01:29:27;;;;;;;2.15;1.20;;;;;;;;;;4943644;29;20548;-86
2022/07/12 01:31:53;;;;;;;1.73;1.20;;;;;;;;;;4943905;29;20028;-85
2022/07/12 01:34:20;;;;;;;2.90;1.50;;;;;;;;;;4944149;29;20032;-85
2022/07/12 01:36:46;;;;;;;2.47;0.90;;;;;;;;;;4943701;29;20047;-85
2022/07/12 01:39:12;;;;;;;3.20;1.08;;;;;;;;;;4944229;29;20047;-84
2022/07/12 01:41:38;;;;;;;3.08;1.00;;;;;;;;;;4944043;29;20028;-85
2022/07/12 01:44:03;;;;;;;1.52;0.90;;;;;;;;;;4944105;29;20071;-84
2022/07/12 01:46:29;;;;;;;1.05;0.80;;;;;;;;;;4942954;29;20039;-85
2022/07/12 01:48:54;;;;;;;2.13;1.30;;;;;;;;;;4943002;29;20035;-85
2022/07/12 01:51:20;;;;;;;1.77;0.90;;;;;;;;;;4944230;29;20040;-85
2022/07/12 01:53:45;;;;;;;0.95;0.90;;;;;;;;;;4942858;29;20035;-85
2022/07/12 01:56:11;;;;;;;2.47;0.90;;;;;;;;;;4943502;29;20047;-85
2022/07/12 01:58:37;;;;;;;1.33;0.90;;;;;;;;;;4943777;29;20059;-84
2022/07/12 02:01:02;;;;;;;3.80;0.90;;;;;;;;;;4943846;29;20043;-84
2022/07/12 02:03:28;;;;;;;1.58;0.90;;;;;;;;;;4944861;29;20036;-85
2022/07/12 02:05:53;;;;;;;2.35;0.90;;;;;;;;;;4944292;29;20047;-85
2022/07/12 02:08:19;;;;;;;2.15;0.90;;;;;;;;;;4943455;29;20075;-84
2022/07/12 02:10:44;;;;;;;3.30;0.95;;;;;;;;;;4944080;29;20032;-85
2022/07/12 02:13:10;;;;;;;4.10;1.10;;;;;;;;;;4943697;29;20047;-84
2022/07/12 02:15:35;;;;;;;2.35;0.90;;;;;;;;;;4944144;29;20036;-85
2022/07/12 02:18:01;;;;;;;5.68;0.90;;;;;;;;;;4943603;29;20067;-84
2022/07/12 02:20:27;;;;;;;3.28;1.00;;;;;;;;;;4943114;29;20489;-84
2022/07/12 02:22:52;;;;;;;1.40;0.80;;;;;;;;;;4943221;29;20035;-85
2022/07/12 02:25:18;;;;;;;2.10;1.00;;;;;;;;;;4944386;29;20028;-85
2022/07/12 02:27:43;;;;;;;2.97;1.10;;;;;;;;;;4946703;29;20393;-84
2022/07/12 02:30:10;;;;;;;2.53;1.10;;;;;;;;;;4930847;29;20158;-85
2022/07/12 02:32:36;;;;;;;2.03;0.93;;;;;;;;;;4947674;29;20581;-84
2022/07/12 02:35:03;;;;;;;6.22;1.23;;;;;;;;;;4947262;29;20067;-83
2022/07/12 02:37:28;;;;;;;3.33;0.95;;;;;;;;;;4946915;29;20386;-85
2022/07/12 02:40:53;;;;;;;2.03;1.00;;;;;;;;;;4947682;29;20046;-85
2022/07/12 02:42:43;;;;;;;1.67;0.95;;;;;;;;;;4946382;29;20044;-84
2022/07/12 02:45:10;;;;;;;2.03;0.90;;;;;;;;;;4961960;29;20098;-85
2022/07/12 02:47:40;;;;;;;1.35;0.82;;;;;;;;;;4946991;29;20167;-85
2022/07/12 02:50:06;;;;;;;1.98;1.08;;;;;;;;;;4946648;29;20047;-85
2022/07/12 02:52:33;;;;;;;2.03;1.05;;;;;;;;;;4946957;29;20040;-85
2022/07/12 02:54:59;;;;;;;1.30;1.00;;;;;;;;;;4946823;29;20023;-85
2022/07/12 02:57:24;;;;;;;2.00;0.90;;;;;;;;;;4945656;29;20035;-84
2022/07/12 02:59:50;;;;;;;3.30;1.00;;;;;;;;;;4946997;29;20039;-84
2022/07/12 03:02:15;;;;;;;3.28;1.00;;;;;;;;;;4946833;29;20099;-84
2022/07/12 03:04:41;;;;;;;1.20;1.00;;;;;;;;;;4946639;29;20111;-84
2022/07/12 03:07:07;;;;;;;2.28;1.00;;;;;;;;;;4946220;29;20118;-84
2022/07/12 03:09:32;;;;;;;2.95;0.80;;;;;;;;;;4947007;29;20465;-86
2022/07/12 03:11:58;;;;;;;1.60;0.85;;;;;;;;;;4961566;29;20110;-84
2022/07/12 03:14:23;;;;;;;1.58;1.00;;;;;;;;;;4946209;29;20047;-84
2022/07/12 03:16:50;;;;;;;1.90;1.45;;;;;;;;;;4945700;29;20046;-85
2022/07/12 03:19:15;;;;;;;1.48;1.10;;;;;;;;;;4946518;29;20551;-84
2022/07/12 03:21:41;;;;;;;1.98;0.90;;;;;;;;;;4945429;29;20130;-85
2022/07/12 03:24:06;;;;;;;1.52;1.00;;;;;;;;;;4946450;29;20028;-85
2022/07/12 03:26:32;;;;;;;2.35;0.90;;;;;;;;;;4947180;29;20058;-85
2022/07/12 03:29:00;;;;;;;1.55;0.90;;;;;;;;;;4946750;29;20441;-84
2022/07/12 03:31:26;;;;;;;3.85;1.10;;;;;;;;;;4946211;29;20070;-84
2022/07/12 03:33:52;;;;;;;1.70;1.00;;;;;;;;;;4946805;29;20461;-84
2022/07/12 03:36:18;;;;;;;2.08;0.90;;;;;;;;;;4945433;29;20051;-85
2022/07/12 03:38:43;;;;;;;0.80;0.80;;;;;;;;;;4944438;29;20051;-85
2022/07/12 03:41:09;;;;;;;1.00;0.90;;;;;;;;;;4945201;29;20032;-84
2022/07/12 03:43:34;;;;;;;0.80;0.80;;;;;;;;;;4946520;29;20058;-85
2022/07/12 03:46:00;;;;;;;1.33;0.95;;;;;;;;;;4945767;29;20023;-84
2022/07/12 03:48:25;;;;;;;2.13;1.10;;;;;;;;;;4944662;29;20031;-84
2022/07/12 03:50:51;;;;;;;2.58;1.00;;;;;;;;;;4944450;29;20075;-84
2022/07/12 03:53:16;;;;;;;2.45;1.00;;;;;;;;;;4946563;29;20036;-84
2022/07/12 03:55:42;;;;;;;2.88;1.05;;;;;;;;;;4944511;29;20103;-85
2022/07/12 03:58:07;;;;;;;2.42;1.00;;;;;;;;;;4946139;29;20046;-84
2022/07/12 04:00:33;;;;;;;1.35;0.93;;;;;;;;;;4945234;29;20043;-85
2022/07/12 04:02:58;;;;;;;2.08;1.00;;;;;;;;;;4946535;29;20039;-85
2022/07/12 04:05:25;;;;;;;1.80;1.10;;;;;;;;;;4943819;29;20032;-84
2022/07/12 04:07:53;;;;;;;2.85;1.08;;;;;;;;;;4943701;29;20047;-84
2022/07/12 04:10:19;;;;;;;1.83;1.20;;;;;;;;;;4945067;29;20036;-84
2022/07/12 04:12:45;;;;;;;2.55;1.10;;;;;;;;;;4945426;29;20039;-84
2022/07/12 04:15:10;;;;;;;2.65;1.00;;;;;;;;;;4943668;29;20091;-84
2022/07/12 04:17:36;;;;;;;1.10;0.95;;;;;;;;;;4945360;29;20031;-84
2022/07/12 04:20:02;;;;;;;1.90;1.10;;;;;;;;;;4945043;29;20087;-84
2022/07/12 04:22:28;;;;;;;1.50;1.20;;;;;;;;;;4944831;29;20042;-84
2022/07/12 04:24:54;;;;;;;2.25;1.20;;;;;;;;;;4943982;29;20027;-85
2022/07/12 04:27:19;;;;;;;4.78;1.20;;;;;;;;;;4945565;29;20085;-85
2022/07/12 04:29:45;;;;;;;1.80;1.13;;;;;;;;;;4945322;29;20039;-85
2022/07/12 04:32:11;;;;;;;1.10;1.00;;;;;;;;;;4943659;29;20036;-84
2022/07/12 04:34:36;;;;;;;2.03;1.00;;;;;;;;;;4945174;29;20042;-84
2022/07/12 04:37:02;;;;;;;2.15;1.00;;;;;;;;;;4944173;29;20043;-84
2022/07/12 04:39:27;;;;;;;2.20;1.25;;;;;;;;;;4944735;29;20048;-84
2022/07/12 04:41:53;;;;;;;2.28;1.13;;;;;;;;;;4944451;29;20031;-84
2022/07/12 04:44:18;;;;;;;1.38;1.05;;;;;;;;;;4944337;29;20027;-85
2022/07/12 04:46:44;;;;;;;2.45;1.02;;;;;;;;;;4945292;29;20666;-84
2022/07/12 04:49:09;;;;;;;3.33;1.10;;;;;;;;;;4944230;29;20039;-85
2022/07/12 04:51:35;;;;;;;3.65;1.17;;;;;;;;;;4945431;29;20042;-86
2022/07/12 04:54:00;;;;;;;2.22;1.10;;;;;;;;;;4943474;29;20516;-84
2022/07/12 04:56:26;;;;;;;1.40;1.10;;;;;;;;;;4944348;29;20040;-84
2022/07/12 04:58:51;;;;;;;2.88;1.10;;;;;;;;;;4944886;29;20043;-84
2022/07/12 05:01:17;;;;;;;3.65;1.20;;;;;;;;;;4945210;29;20039;-85
2022/07/12 05:03:42;;;;;;;1.77;1.10;;;;;;;;;;4943595;29;20044;-84
2022/07/12 05:06:08;;;;;;;1.88;1.10;;;;;;;;;;4944907;29;20040;-84
2022/07/12 05:08:34;;;;;;;2.17;1.10;;;;;;;;;;4944395;29;20276;-85
2022/07/12 05:10:59;;;;;;;1.73;1.23;;;;;;;;;;4945197;29;20079;-84
2022/07/12 05:13:25;;;;;;;1.65;1.10;;;;;;;;;;4945027;29;20102;-84
2022/07/12 05:15:50;;;;;;;2.28;1.10;;;;;;;;;;4944195;29;20234;-84
2022/07/12 05:18:16;;;;;;;2.10;1.40;;;;;;;;;;4944880;29;20050;-85
2022/07/12 05:20:42;;;;;;;3.15;1.30;;;;;;;;;;4944985;29;20048;-84
2022/07/12 05:23:07;;;;;;;2.22;1.33;;;;;;;;;;4944896;29;20043;-85
2022/07/12 05:25:33;;;;;;;2.72;1.30;;;;;;;;;;4944077;29;20047;-84
2022/07/12 05:27:59;;;;;;;2.28;1.20;;;;;;;;;;4944949;29;20051;-84
2022/07/12 05:30:25;;;;;;;1.38;1.20;;;;;;;;;;4944083;29;20039;-84
2022/07/12 05:32:52;;;;;;;1.67;1.30;;;;;;;;;;4943459;29;20043;-84
2022/07/12 05:35:17;;;;;;;2.15;1.48;;;;;;;;;;4944346;29;20035;-85
2022/07/12 05:37:43;;;;;;;1.92;1.20;;;;;;;;;;4943066;29;20103;-85
2022/07/12 05:40:09;;;;;;;3.78;1.40;;;;;;;;;;4945510;29;20059;-85
2022/07/12 05:42:34;;;;;;;2.47;1.15;;;;;;;;;;4943782;29;20071;-84
2022/07/12 05:45:00;;;;;;;3.25;1.30;;;;;;;;;;4945001;29;20429;-84
2022/07/12 05:47:26;;;;;;;2.78;1.30;;;;;;;;;;4944906;29;20036;-85
2022/07/12 05:49:51;;;;;;;2.88;1.30;;;;;;;;;;4945152;29;20114;-84
2022/07/12 05:55:01;;;;;;;6.55;1.25;;;;;;;;;;4944993;29;20031;-85
2022/07/12 05:57:27;;;;;;;1.77;1.30;;;;;;;;;;4943893;29;20043;-83
2022/07/12 05:59:52;;;;;;;4.50;1.20;;;;;;;;;;4944710;29;20127;-85
2022/07/12 06:02:18;;;;;;;11.05;1.50;;;;;;;;;;4948482;29;20045;-84
2022/07/12 06:04:43;;;;;;;2.22;1.20;;;;;;;;;;4948299;29;20032;-85
2022/07/12 06:07:09;;;;;;;1.90;1.02;;;;;;;;;;4950219;29;20039;-84
2022/07/12 06:09:34;;;;;;;2.20;1.20;;;;;;;;;;4948678;29;20063;-84
2022/07/12 06:12:00;;;;;;;1.80;1.00;;;;;;;;;;4947677;29;20035;-84
2022/07/12 06:14:25;;;;;;;1.58;1.10;;;;;;;;;;4943571;29;20043;-84
2022/07/12 06:16:51;;;;;;;2.92;1.42;;;;;;;;;;4943668;29;20043;-85
2022/07/12 06:19:16;;;;;;;4.93;1.40;;;;;;;;;;4943443;29;20424;-85
2022/07/12 06:21:42;;;;;;;2.20;1.20;;;;;;;;;;4941859;29;20063;-86
2022/07/12 06:24:07;;;;;;;3.42;1.40;;;;;;;;;;4942788;29;20405;-87
2022/07/12 06:26:33;;;;;;;1.35;1.20;;;;;;;;;;4943388;29;20059;-88
2022/07/12 06:28:58;;;;;;;2.20;1.27;;;;;;;;;;4942926;29;20382;-88
2022/07/12 06:31:25;;;;;;;1.80;1.30;;;;;;;;;;4926197;29;20035;-87
2022/07/12 06:33:50;;;;;;;2.85;1.60;;;;;;;;;;4943276;29;20043;-88
2022/07/12 06:36:16;;;;;;;1.77;1.35;;;;;;;;;;4942158;29;20039;-84
2022/07/12 06:38:41;;;;;;;1.92;1.33;;;;;;;;;;4941718;29;20042;-87
2022/07/12 06:41:07;;;;;;;1.67;1.20;;;;;;;;;;4942820;29;20429;-85
2022/07/12 06:43:32;;;;;;;3.58;1.83;;;;;;;;;;4946749;29;20046;-86
2022/07/12 06:45:58;;;;;;;2.45;1.20;;;;;;;;;;4941278;29;20031;-86
2022/07/12 06:48:23;;;;;;;1.30;1.17;;;;;;;;;;4942466;29;20046;-85
2022/07/12 06:50:49;;;;;;;2.17;1.45;;;;;;;;;;4944693;29;20477;-85
2022/07/12 06:53:14;;;;;;;1.85;1.50;;;;;;;;;;4942058;29;20039;-86
2022/07/12 06:55:42;;;;;;;2.42;1.60;;;;;;;;;;4944172;29;20039;-86
2022/07/12 06:58:08;;;;;;;2.42;1.65;;;;;;;;;;4941378;29;20051;-85
2022/07/12 07:00:33;;;;;;;4.32;1.60;;;;;;;;;;4942719;29;20118;-85
2022/07/12 07:02:59;;;;;;;3.90;1.58;;;;;;;;;;4944644;29;20063;-84
2022/07/12 07:05:24;;;;;;;3.53;1.63;;;;;;;;;;4945703;29;20027;-85
2022/07/12 07:07:50;;;;;;;2.35;1.50;;;;;;;;;;4942810;29;20047;-85
2022/07/12 07:10:15;;;;;;;2.90;1.55;;;;;;;;;;4944144;29;20027;-87
2022/07/12 07:12:41;;;;;;;4.07;1.73;;;;;;;;;;4944588;29;20038;-86
2022/07/12 07:15:07;;;;;;;2.00;1.40;;;;;;;;;;4945061;29;20048;-86
2022/07/12 07:17:33;;;;;;;4.78;1.80;;;;;;;;;;4943730;29;20071;-85
2022/07/12 07:19:58;;;;;;;2.65;1.70;;;;;;;;;;4945143;29;20031;-86
2022/07/12 07:22:24;;;;;;;2.35;1.60;;;;;;;;;;4943789;29;20452;-85
2022/07/12 07:24:49;;;;;;;3.65;1.70;;;;;;;;;;4942282;29;20454;-87
2022/07/12 07:27:15;;;;;;;1.73;1.60;;;;;;;;;;4941369;29;20040;-87
2022/07/12 07:32:24;;;;;;;2.55;1.63;;;;;;;;;;4940879;29;20042;-87
2022/07/12 07:34:50;;;;;;;2.33;1.80;;;;;;;;;;4940098;29;20413;-87
2022/07/12 07:37:16;;;;;;;2.33;1.60;;;;;;;;;;4939646;29;20416;-87
2022/07/12 07:39:41;;;;;;;2.17;1.70;;;;;;;;;;4941378;29;20036;-87
2022/07/12 07:42:07;;;;;;;2.60;1.80;;;;;;;;;;4939807;29;20032;-87
2022/07/12 07:44:32;;;;;;;2.15;1.80;;;;;;;;;;4939667;29;20445;-87
2022/07/12 07:46:58;;;;;;;4.18;1.70;;;;;;;;;;4939480;29;20067;-86
2022/07/12 07:49:23;;;;;;;3.20;1.90;;;;;;;;;;4939780;29;20032;-87
2022/07/12 07:51:49;;;;;;;4.15;2.00;;;;;;;;;;4938869;29;20099;-88
2022/07/12 07:54:14;;;;;;;3.67;1.88;;;;;;;;;;4939570;29;20066;-88
2022/07/12 07:56:40;;;;;;;2.63;1.70;;;;;;;;;;4939176;29;20035;-87
2022/07/12 07:59:07;;;;;;;3.38;1.80;;;;;;;;;;4938658;29;20071;-87
2022/07/12 08:01:44;;;;;;;3.28;1.83;;;;;;;;;;4939817;29;20050;-87
2022/07/12 08:04:14;;;;;;;2.42;1.77;;;;;;;;;;4939757;29;20035;-87
2022/07/12 08:06:41;;;;;;;3.83;2.00;;;;;;;;;;4940068;29;20047;-88
2022/07/12 08:09:07;;;;;;;4.63;1.73;;;;;;;;;;4939900;29;20099;-88
2022/07/12 08:11:33;;;;;;;2.30;1.75;;;;;;;;;;4939670;29;20071;-87
2022/07/12 08:13:59;;;;;;;2.15;1.80;;;;;;;;;;4939273;29;20051;-86
2022/07/12 08:16:25;;;;;;;2.72;1.88;;;;;;;;;;4938784;29;20485;-87
2022/07/12 08:18:51;;;;;;;2.17;1.70;;;;;;;;;;4939418;29;20039;-87
2022/07/12 08:21:17;;;;;;;3.78;2.10;;;;;;;;;;4939526;29;20042;-87
2022/07/12 08:23:42;;;;;;;2.13;1.80;;;;;;;;;;4939341;29;20489;-88
2022/07/12 08:26:08;;;;;;;3.25;1.60;;;;;;;;;;4940082;29;20039;-87
2022/07/12 08:28:33;;;;;;;4.13;1.90;;;;;;;;;;4939618;29;20043;-88
2022/07/12 08:30:59;;;;;;;2.28;1.50;;;;;;;;;;4939637;29;20123;-86
2022/07/12 08:33:24;;;;;;;2.38;1.75;;;;;;;;;;4938826;29;20115;-86
2022/07/12 08:35:50;;;;;;;3.25;1.67;;;;;;;;;;4939198;29;20036;-87
2022/07/12 08:38:15;;;;;;;2.10;1.83;;;;;;;;;;4939298;29;20039;-87
2022/07/12 08:40:42;;;;;;;1.80;1.50;;;;;;;;;;4939328;29;20036;-86
2022/07/12 08:43:08;;;;;;;2.03;1.50;;;;;;;;;;4938130;29;20039;-87
2022/07/12 08:45:33;;;;;;;1.60;1.45;;;;;;;;;;4939222;29;20037;-87
2022/07/12 08:47:59;;;;;;;1.92;1.40;;;;;;;;;;4938649;29;20164;-86
2022/07/12 08:50:26;;;;;;;2.30;1.25;;;;;;;;;;4938703;29;20039;-86
2022/07/12 08:52:54;;;;;;;1.33;1.17;;;;;;;;;;4938832;29;20531;-86
2022/07/12 08:55:28;;;;;;;1.65;1.40;;;;;;;;;;4937883;29;20068;-86
2022/07/12 08:57:59;;;;;;;2.38;1.40;;;;;;;;;;4937534;29;20043;-86
2022/07/12 09:00:26;;;;;;;2.13;1.52;;;;;;;;;;4938314;29;20043;-87
2022/07/12 09:02:59;;;;;;;3.13;1.50;;;;;;;;;;4938836;29;20393;-87
2022/07/12 09:05:35;;;;;;;1.50;1.20;;;;;;;;;;4937096;29;20031;-85
2022/07/12 09:08:08;;;;;;;1.58;1.10;;;;;;;;;;4938270;29;20039;-87
2022/07/12 09:10:49;;;;;;;1.77;1.20;;;;;;;;;;4936954;29;20026;-87
2022/07/12 09:13:14;;;;;;;1.73;1.10;;;;;;;;;;4939180;29;20039;-86
2022/07/12 09:15:40;;;;;;;1.00;0.90;;;;;;;;;;4938130;29;20031;-87
2022/07/12 09:18:13;;;;;;;2.55;1.10;;;;;;;;;;4938292;29;20027;-86
2022/07/12 09:20:39;;;;;;;3.83;1.10;;;;;;;;;;4937320;29;20080;-87
2022/07/12 09:23:08;;;;;;;2.15;1.20;;;;;;;;;;4938551;29;20066;-86
2022/07/12 09:25:34;;;;;;;1.58;1.15;;;;;;;;;;4938467;29;20039;-87
2022/07/12 09:28:04;;;;;;;1.50;1.20;;;;;;;;;;4939011;29;20095;-86
2022/07/12 09:30:30;;;;;;;1.73;1.23;;;;;;;;;;4940427;29;20070;-84
2022/07/12 09:36:07;;;;;;;1.80;1.00;;;;;;;;;;4936047;29;20035;-84
2022/07/12 09:38:38;;;;;;;1.83;1.00;;;;;;;;;;4941023;29;20066;-85
2022/07/12 09:41:07;;;;;;;1.90;1.00;;;;;;;;;;4942599;29;20039;-84
2022/07/12 09:43:34;;;;;;;1.67;1.20;;;;;;;;;;4941456;29;20043;-83
2022/07/12 09:46:00;;;;;;;1.95;1.10;;;;;;;;;;4941669;29;20031;-84
2022/07/12 09:48:29;;;;;;;1.85;1.20;;;;;;;;;;4942058;29;20035;-84
2022/07/12 09:50:57;;;;;;;1.38;1.10;;;;;;;;;;4943134;29;20044;-84
2022/07/12 09:53:28;;;;;;;1.75;1.23;;;;;;;;;;4942198;29;20069;-84
2022/07/12 09:55:55;;;;;;;2.20;1.48;;;;;;;;;;4941692;29;20120;-84
2022/07/12 09:58:26;;;;;;;2.47;1.27;;;;;;;;;;4941106;29;20095;-84
2022/07/12 10:00:53;;;;;;;3.15;1.20;;;;;;;;;;4942332;29;20223;-85
2022/07/12 10:03:23;;;;;;;3.13;1.20;;;;;;;;;;4942504;29;20031;-84
2022/07/12 10:05:51;;;;;;;2.88;1.38;;;;;;;;;;4941971;29;20028;-84
2022/07/12 10:08:18;;;;;;;1.95;1.40;;;;;;;;;;4942622;29;20043;-84
2022/07/12 10:10:44;;;;;;;3.58;1.30;;;;;;;;;;4940963;29;20032;-84
2022/07/12 10:13:10;;;;;;;2.45;1.40;;;;;;;;;;4942121;29;20241;-86
2022/07/12 10:15:36;;;;;;;1.70;1.30;;;;;;;;;;4939377;29;20035;-87
2022/07/12 10:18:04;;;;;;;2.88;1.30;;;;;;;;;;4941026;29;20044;-87
2022/07/12 10:20:29;;;;;;;2.10;1.55;;;;;;;;;;4939333;29;20046;-85
2022/07/12 10:23:27;;;;;;;3.95;1.27;;;;;;;;;;4939249;29;20035;-85
2022/07/12 10:25:53;;;;;;;2.80;1.40;;;;;;;;;;4923114;29;20512;-86
2022/07/12 10:28:18;;;;;;;2.08;1.40;;;;;;;;;;4938998;29;20044;-85
2022/07/12 10:30:47;;;;;;;2.17;1.40;;;;;;;;;;4939284;29;20032;-86
2022/07/12 10:33:23;;;;;;;3.50;1.50;;;;;;;;;;4940408;29;20035;-85
2022/07/12 10:36:07;;;;;;;2.95;1.30;;;;;;;;;;4938966;29;20098;-86
2022/07/12 10:38:34;;;;;;;2.10;1.42;;;;;;;;;;4940367;29;20496;-88
2022/07/12 10:41:20;;;;;;;5.85;1.58;;;;;;;;;;4938606;29;20050;-85
2022/07/12 10:44:04;;;;;;;1.63;1.40;;;;;;;;;;4939871;29;20396;-86
2022/07/12 10:46:30;;;;;;;2.33;1.40;;;;;;;;;;4939945;29;20047;-85
2022/07/12 10:49:33;;;;;;;4.00;1.67;;;;;;;;;;4938891;29;20216;-85
2022/07/12 10:52:11;;;;;;;2.47;1.40;;;;;;;;;;4938647;29;20036;-85
2022/07/12 10:54:40;;;;;;;2.10;1.50;;;;;;;;;;4939369;29;20060;-87
2022/07/12 10:57:07;;;;;;;1.60;1.40;;;;;;;;;;4939325;29;20043;-85
2022/07/12 10:59:34;;;;;;;1.45;1.30;;;;;;;;;;4940095;29;20135;-87
2022/07/12 11:02:00;;;;;;;1.73;1.20;;;;;;;;;;4939480;29;20047;-86
2022/07/12 11:04:27;;;;;;;1.83;1.42;;;;;;;;;;4938992;29;20036;-87
2022/07/12 11:06:57;;;;;;;1.77;1.30;;;;;;;;;;4939295;29;20034;-87
2022/07/12 11:09:24;;;;;;;1.90;1.40;;;;;;;;;;4939288;29;20523;-86
2022/07/12 11:11:52;;;;;;;3.63;1.63;;;;;;;;;;4938053;29;20039;-87
2022/07/12 11:14:32;;;;;;;2.17;1.30;;;;;;;;;;4938195;29;20493;-86
2022/07/12 11:16:59;;;;;;;3.03;1.40;;;;;;;;;;4939047;29;20039;-87
2022/07/12 11:19:26;;;;;;;2.10;1.40;;;;;;;;;;4938089;29;20444;-86
2022/07/12 11:21:56;;;;;;;3.30;1.35;;;;;;;;;;4939803;29;20064;-87
2022/07/12 11:24:23;;;;;;;2.10;1.25;;;;;;;;;;4945941;29;20039;-87
2022/07/12 11:26:49;;;;;;;1.75;1.23;;;;;;;;;;4947761;28;20580;-86
2022/07/12 11:29:16;;;;;;;2.95;1.30;;;;;;;;;;4949247;29;20063;-85
2022/07/12 11:31:42;;;;;;;1.98;1.30;;;;;;;;;;4950343;29;20035;-86
2022/07/12 11:34:18;;;;;;;3.28;1.30;;;;;;;;;;4947127;29;20050;-87
2022/07/12 11:36:45;;;;;;;3.03;1.27;;;;;;;;;;4945804;28;20381;-86
2022/07/12 11:39:11;;;;;;;3.55;1.40;;;;;;;;;;4952595;28;20027;-87
2022/07/12 11:41:36;;;;;;;3.63;1.40;;;;;;;;;;4956791;29;20032;-86
2022/07/12 11:44:02;;;;;;;3.05;1.45;;;;;;;;;;4956828;28;20068;-86
2022/07/12 11:46:27;;;;;;;1.52;1.30;;;;;;;;;;4958142;28;20515;-86
2022/07/12 11:48:53;;;;;;;1.88;1.35;;;;;;;;;;4959376;28;20043;-85
2022/07/12 11:51:18;;;;;;;2.20;1.40;;;;;;;;;;4958329;28;20043;-86
2022/07/12 11:53:52;;;;;;;1.85;1.40;;;;;;;;;;4956554;29;20043;-84
2022/07/12 11:56:28;;;;;;;1.98;1.30;;;;;;;;;;4957693;28;20039;-84
2022/07/12 11:58:59;;;;;;;3.10;1.35;;;;;;;;;;4955521;28;20039;-84
2022/07/12 12:01:25;;;;;;;4.53;1.35;;;;;;;;;;4958246;28;20039;-83
2022/07/12 12:03:51;;;;;;;3.22;1.42;;;;;;;;;;4957936;28;20377;-84
2022/07/12 12:06:17;;;;;;;1.58;1.30;;;;;;;;;;4956824;28;20042;-85
2022/07/12 12:08:44;;;;;;;2.17;1.30;;;;;;;;;;4955866;29;20054;-84
2022/07/12 12:11:10;;;;;;;1.85;1.20;;;;;;;;;;4955570;29;20031;-83
2022/07/12 12:13:36;;;;;;;3.28;1.30;;;;;;;;;;4957355;28;20038;-84
2022/07/12 12:16:04;;;;;;;3.00;1.30;;;;;;;;;;4956849;28;20039;-84
2022/07/12 12:18:34;;;;;;;1.38;1.20;;;;;;;;;;4956532;28;20039;-84
2022/07/12 12:21:03;;;;;;;1.42;1.17;;;;;;;;;;4956784;28;20047;-83
2022/07/12 12:23:29;;;;;;;2.67;1.13;;;;;;;;;;4955856;29;20457;-84
2022/07/12 12:26:30;;;;;;;4.05;1.17;;;;;;;;;;4971895;28;20480;-85
2022/07/12 12:28:56;;;;;;;1.35;1.10;;;;;;;;;;4917750;29;20177;-84
2022/07/12 12:31:23;;;;;;;1.20;1.10;;;;;;;;;;4943737;29;20084;-84
2022/07/12 12:33:51;;;;;;;1.45;1.00;;;;;;;;;;4955143;29;20035;-84
2022/07/12 12:36:18;;;;;;;1.65;1.20;;;;;;;;;;4956235;28;20477;-83
2022/07/12 12:38:44;;;;;;;3.72;1.42;;;;;;;;;;4939486;29;20069;-83
2022/07/12 12:41:10;;;;;;;1.98;1.08;;;;;;;;;;4954868;29;20115;-84
2022/07/12 12:43:35;;;;;;;3.42;1.33;;;;;;;;;;4956815;28;20064;-85
2022/07/12 12:46:01;;;;;;;1.35;1.20;;;;;;;;;;4957314;28;20039;-85
2022/07/12 12:48:29;;;;;;;4.75;1.13;;;;;;;;;;4955723;28;20088;-85
2022/07/12 12:51:02;;;;;;;2.08;1.20;;;;;;;;;;4956005;28;20038;-84
2022/07/12 12:53:28;;;;;;;3.63;1.20;;;;;;;;;;4955311;29;20035;-85
2022/07/12 12:55:55;;;;;;;1.35;1.00;;;;;;;;;;4955681;28;20031;-84
2022/07/12 12:58:22;;;;;;;2.78;1.08;;;;;;;;;;4955523;28;20039;-85
2022/07/12 13:00:50;;;;;;;5.18;1.02;;;;;;;;;;4949927;29;20078;-85
2022/07/12 13:03:19;;;;;;;0.93;0.82;;;;;;;;;;4936242;29;20039;-85
2022/07/12 13:05:45;;;;;;;1.50;1.00;;;;;;;;;;4935977;29;20485;-84
2022/07/12 13:08:12;;;;;;;1.38;1.27;;;;;;;;;;4936030;29;20412;-84
2022/07/12 13:10:39;;;;;;;4.90;1.00;;;;;;;;;;4936665;29;20035;-87
2022/07/12 13:13:05;;;;;;;1.60;1.00;;;;;;;;;;4936082;29;20041;-86
2022/07/12 13:15:31;;;;;;;4.53;0.95;;;;;;;;;;4936482;29;20035;-85
2022/07/12 13:17:57;;;;;;;1.00;0.90;;;;;;;;;;4935963;29;20575;-89
2022/07/12 13:20:24;;;;;;;1.33;0.80;;;;;;;;;;4938186;29;20053;-88
2022/07/12 13:22:50;;;;;;;1.30;0.77;;;;;;;;;;4919934;29;20122;-87
2022/07/12 13:25:16;;;;;;;1.08;0.70;;;;;;;;;;4938115;29;20059;-86
2022/07/12 13:27:42;;;;;;;10.55;1.50;;;;;;;;;;4937378;29;20039;-85
2022/07/12 13:30:10;;;;;;;1.33;0.93;;;;;;;;;;4936561;29;20485;-86
2022/07/12 13:32:37;;;;;;;1.23;0.80;;;;;;;;;;4937770;29;20522;-86
2022/07/12 13:35:04;;;;;;;1.35;0.68;;;;;;;;;;4937394;29;20082;-87
2022/07/12 13:37:30;;;;;;;2.10;0.90;;;;;;;;;;4936362;29;20031;-86
2022/07/12 13:40:11;;;;;;;2.78;0.88;;;;;;;;;;4937184;29;20378;-85
2022/07/12 13:42:47;;;;;;;6.25;1.35;;;;;;;;;;4936941;29;20048;-86
2022/07/12 13:45:18;;;;;;;3.55;0.90;;;;;;;;;;4936503;29;20043;-86
2022/07/12 13:47:45;;;;;;;1.25;0.70;;;;;;;;;;4936055;29;20052;-86
2022/07/12 13:50:13;;;;;;;2.25;0.75;;;;;;;;;;4937437;29;20028;-86
2022/07/12 13:52:40;;;;;;;1.38;0.80;;;;;;;;;;4936654;29;20157;-86
2022/07/12 13:55:07;;;;;;;2.85;0.90;;;;;;;;;;4937410;29;20062;-85
2022/07/12 13:57:34;;;;;;;2.92;0.80;;;;;;;;;;4938312;29;20130;-85
2022/07/12 14:00:01;;;;;;;0.80;0.80;;;;;;;;;;4936913;29;20484;-85
2022/07/12 14:02:27;;;;;;;1.08;0.80;;;;;;;;;;4938716;29;20036;-85
2022/07/12 14:04:53;;;;;;;1.30;0.70;;;;;;;;;;4937644;29;20055;-86
2022/07/12 14:07:19;;;;;;;0.98;0.70;;;;;;;;;;4937346;29;20045;-86
2022/07/12 14:09:45;;;;;;;0.90;0.60;;;;;;;;;;4938382;29;20039;-86
2022/07/12 14:12:10;;;;;;;21.95;2.33;;;;;;;;;;4938409;29;20087;-86
2022/07/12 14:15:13;;;;;;;0.90;0.90;;;;;;;;;;4936764;29;20322;-84
2022/07/12 14:17:56;;;;;;;0.75;0.75;;;;;;;;;;4936090;29;20404;-86
2022/07/12 14:20:22;;;;;;;1.38;0.70;;;;;;;;;;4936796;29;20044;-86
2022/07/12 14:22:48;;;;;;;1.65;0.70;;;;;;;;;;4938509;29;20409;-84
2022/07/12 14:25:15;;;;;;;2.45;0.93;;;;;;;;;;4940231;29;20106;-87
2022/07/12 14:27:42;;;;;;;1.48;0.70;;;;;;;;;;4938934;29;20039;-86
2022/07/12 14:30:10;;;;;;;3.58;0.82;;;;;;;;;;4940532;29;20511;-85
2022/07/12 14:32:37;;;;;;;1.77;0.80;;;;;;;;;;4941209;29;20131;-86
2022/07/12 14:35:03;;;;;;;3.08;0.80;;;;;;;;;;4939371;29;20075;-86
2022/07/12 14:37:28;;;;;;;1.25;0.82;;;;;;;;;;4939171;29;20511;-85
2022/07/12 14:39:54;;;;;;;1.05;0.80;;;;;;;;;;4941176;29;20043;-85
2022/07/12 14:42:20;;;;;;;2.55;0.90;;;;;;;;;;4940492;29;20583;-85
2022/07/12 14:44:45;;;;;;;0.75;0.70;;;;;;;;;;4939805;29;20038;-86
2022/07/12 14:47:11;;;;;;;0.70;0.52;;;;;;;;;;4941025;29;20039;-86
2022/07/12 14:49:37;;;;;;;0.80;0.80;;;;;;;;;;4940172;29;20160;-84
2022/07/12 14:52:06;;;;;;;0.95;0.70;;;;;;;;;;4941088;29;20043;-85